createdAt,value
2015-11-19T00:00:09.763Z,2.2
2015-11-19T00:00:22.106Z,2.16
2015-11-19T00:00:34.453Z,2.13
2015-11-19T00:00:46.828Z,2.13
2015-11-19T00:00:59.172Z,2.18
2015-11-19T00:01:11.516Z,2.06
2015-11-19T00:01:23.859Z,2.18
2015-11-19T00:01:36.206Z,2.16
2015-11-19T00:01:48.565Z,2.18
2015-11-19T00:02:00.925Z,2.05
2015-11-19T00:02:13.331Z,2.15
2015-11-19T00:02:24.972Z,2.2
2015-11-19T00:02:37.365Z,2.12
2015-11-19T00:02:49.740Z,2.08
2015-11-19T00:03:02.115Z,2.11
2015-11-19T00:03:14.490Z,2.09
2015-11-19T00:03:26.865Z,2.13
2015-11-19T00:03:39.227Z,2.12
2015-11-19T00:03:51.602Z,2.2
2015-11-19T00:04:04.055Z,2.09
2015-11-19T00:04:16.399Z,2.15
2015-11-19T00:04:28.742Z,2.15
2015-11-19T00:04:41.089Z,2.23
2015-11-19T00:04:53.433Z,2.15
2015-11-19T00:05:05.886Z,2.16
2015-11-19T00:05:18.230Z,2.15
2015-11-19T00:05:30.573Z,2.24
2015-11-19T00:05:42.920Z,2.18
2015-11-19T00:05:55.264Z,2.23
2015-11-19T00:06:07.608Z,2.23
2015-11-19T00:06:19.998Z,2.27
2015-11-19T00:06:32.405Z,2.27
2015-11-19T00:06:44.750Z,2.27
2015-11-19T00:06:57.110Z,2.27
2015-11-19T00:07:09.453Z,2.27
2015-11-19T00:07:21.797Z,2.26
2015-11-19T00:07:34.125Z,2.3
2015-11-19T00:07:46.503Z,2.24
2015-11-19T00:07:58.925Z,2.33
2015-11-19T00:08:11.347Z,2.24
2015-11-19T00:08:23.722Z,2.27
2015-11-19T00:08:36.113Z,2.33
2015-11-19T00:08:48.491Z,2.33
2015-11-19T00:09:00.850Z,2.31
2015-11-19T00:09:13.209Z,2.27
2015-11-19T00:09:25.553Z,2.38
2015-11-19T00:09:37.897Z,2.23
2015-11-19T00:09:50.258Z,2.3
2015-11-19T00:10:02.602Z,2.33
2015-11-19T00:10:14.961Z,2.33
2015-11-19T00:10:27.305Z,2.31
2015-11-19T00:10:38.946Z,2.3
2015-11-19T00:10:51.293Z,2.33
2015-11-19T00:11:03.652Z,2.29
2015-11-19T00:11:15.996Z,2.3
2015-11-19T00:11:28.402Z,2.3
2015-11-19T00:11:40.089Z,2.29
2015-11-19T00:11:52.452Z,2.26
2015-11-19T00:12:04.858Z,2.29
2015-11-19T00:12:17.264Z,2.31
2015-11-19T00:12:29.624Z,2.26
2015-11-19T00:12:41.983Z,2.38
2015-11-19T00:12:54.361Z,2.29
2015-11-19T00:13:06.736Z,2.29
2015-11-19T00:13:19.111Z,2.27
2015-11-19T00:13:31.549Z,2.36
2015-11-19T00:13:43.939Z,2.26
2015-11-19T00:13:56.317Z,2.31
2015-11-19T00:14:08.708Z,2.26
2015-11-19T00:14:21.067Z,2.33
2015-11-19T00:14:33.395Z,2.26
2015-11-19T00:14:45.739Z,2.33
2015-11-19T00:14:58.085Z,2.36
2015-11-19T00:15:10.491Z,2.29
2015-11-19T00:15:22.882Z,2.38
2015-11-19T00:15:35.225Z,2.29
2015-11-19T00:15:47.569Z,2.3
2015-11-19T00:15:59.932Z,2.29
2015-11-19T00:16:12.275Z,2.31
2015-11-19T00:16:24.635Z,2.26
2015-11-19T00:16:37.057Z,2.3
2015-11-19T00:16:49.432Z,2.3
2015-11-19T00:17:01.778Z,2.33
2015-11-19T00:17:14.138Z,2.3
2015-11-19T00:17:26.513Z,2.34
2015-11-19T00:17:38.856Z,2.31
2015-11-19T00:17:51.216Z,2.24
2015-11-19T00:18:03.640Z,2.31
2015-11-19T00:18:16.046Z,2.33
2015-11-19T00:18:28.421Z,2.34
2015-11-19T00:18:40.812Z,2.4
2015-11-19T00:18:53.202Z,2.4
2015-11-19T00:19:05.581Z,2.31
2015-11-19T00:19:17.972Z,2.38
2015-11-19T00:19:30.425Z,2.36
2015-11-19T00:19:42.784Z,2.4
2015-11-19T00:19:55.128Z,2.38
2015-11-19T00:20:07.474Z,2.41
2015-11-19T00:20:19.661Z,2.38
2015-11-19T00:20:32.021Z,2.42
2015-11-19T00:20:44.364Z,2.36
2015-11-19T00:20:56.708Z,2.44
2015-11-19T00:21:09.102Z,2.41
2015-11-19T00:21:21.524Z,2.44
2015-11-19T00:21:33.883Z,2.41
2015-11-19T00:21:46.227Z,2.42
2015-11-19T00:21:58.571Z,2.36
2015-11-19T00:22:10.949Z,2.27
2015-11-19T00:22:23.339Z,2.38
2015-11-19T00:22:35.011Z,2.4
2015-11-19T00:22:47.355Z,2.42
2015-11-19T00:22:59.714Z,2.4
2015-11-19T00:23:12.077Z,2.4
2015-11-19T00:23:24.452Z,2.38
2015-11-19T00:23:36.827Z,2.3
2015-11-19T00:23:49.186Z,2.36
2015-11-19T00:24:01.577Z,2.33
2015-11-19T00:24:13.955Z,2.33
2015-11-19T00:24:26.330Z,2.24
2015-11-19T00:24:38.705Z,2.26
2015-11-19T00:24:51.048Z,2.27
2015-11-19T00:25:03.392Z,2.27
2015-11-19T00:25:15.050Z,2.34
2015-11-19T00:25:27.441Z,2.27
2015-11-19T00:25:39.800Z,2.29
2015-11-19T00:25:52.144Z,2.24
2015-11-19T00:26:04.488Z,2.23
2015-11-19T00:26:16.835Z,2.24
2015-11-19T00:26:29.178Z,2.26
2015-11-19T00:26:41.538Z,2.27
2015-11-19T00:26:53.881Z,2.31
2015-11-19T00:27:06.225Z,2.3
2015-11-19T00:27:17.868Z,2.23
2015-11-19T00:27:30.227Z,2.23
2015-11-19T00:27:42.587Z,2.2
2015-11-19T00:27:54.946Z,2.27
2015-11-19T00:28:07.321Z,2.27
2015-11-19T00:28:19.746Z,2.2
2015-11-19T00:28:32.121Z,2.3
2015-11-19T00:28:44.496Z,2.27
2015-11-19T00:28:56.871Z,2.29
2015-11-19T00:29:09.261Z,2.3
2015-11-19T00:29:21.624Z,2.33
2015-11-19T00:29:34.030Z,2.31
2015-11-19T00:29:46.374Z,2.3
2015-11-19T00:29:58.718Z,2.33
2015-11-19T00:30:11.050Z,2.3
2015-11-19T00:30:23.396Z,2.26
2015-11-19T00:30:35.771Z,2.34
2015-11-19T00:30:48.209Z,2.3
2015-11-19T00:31:00.568Z,2.29
2015-11-19T00:31:12.912Z,2.27
2015-11-19T00:31:25.258Z,2.27
2015-11-19T00:31:37.602Z,2.41
2015-11-19T00:31:49.961Z,2.31
2015-11-19T00:32:02.336Z,2.34
2015-11-19T00:32:14.523Z,2.29
2015-11-19T00:32:26.870Z,2.3
2015-11-19T00:32:39.230Z,2.33
2015-11-19T00:32:51.589Z,2.34
2015-11-19T00:33:03.230Z,2.29
2015-11-19T00:33:15.589Z,2.3
2015-11-19T00:33:27.967Z,2.27
2015-11-19T00:33:40.342Z,2.26
2015-11-19T00:33:52.717Z,2.33
2015-11-19T00:34:05.076Z,2.27
2015-11-19T00:34:17.467Z,2.33
2015-11-19T00:34:29.845Z,2.34
2015-11-19T00:34:42.220Z,2.24
2015-11-19T00:34:54.595Z,2.27
2015-11-19T00:35:06.939Z,2.26
2015-11-19T00:35:19.314Z,2.24
2015-11-19T00:35:31.738Z,2.29
2015-11-19T00:35:44.081Z,2.27
2015-11-19T00:35:56.425Z,2.22
2015-11-19T00:36:08.769Z,2.18
2015-11-19T00:36:21.128Z,2.24
2015-11-19T00:36:33.460Z,2.2
2015-11-19T00:36:45.851Z,2.13
2015-11-19T00:36:58.210Z,2.13
2015-11-19T00:37:10.538Z,2.22
2015-11-19T00:37:22.882Z,2.16
2015-11-19T00:37:35.244Z,2.16
2015-11-19T00:37:47.603Z,2.2
2015-11-19T00:37:59.978Z,2.13
2015-11-19T00:38:12.337Z,2.22
2015-11-19T00:38:24.712Z,2.24
2015-11-19T00:38:37.075Z,2.23
2015-11-19T00:38:48.747Z,2.13
2015-11-19T00:39:01.122Z,2.2
2015-11-19T00:39:13.559Z,2.23
2015-11-19T00:39:25.934Z,2.18
2015-11-19T00:39:38.312Z,2.18
2015-11-19T00:39:50.531Z,2.22
2015-11-19T00:40:02.906Z,2.16
2015-11-19T00:40:15.250Z,2.18
2015-11-19T00:40:27.593Z,2.18
2015-11-19T00:40:39.940Z,2.16
2015-11-19T00:40:52.346Z,2.13
2015-11-19T00:41:04.768Z,2.13
2015-11-19T00:41:17.096Z,2.22
2015-11-19T00:41:29.442Z,2.11
2015-11-19T00:41:41.848Z,2.18
2015-11-19T00:41:54.255Z,2.23
2015-11-19T00:42:06.442Z,2.18
2015-11-19T00:42:18.770Z,2.16
2015-11-19T00:42:31.101Z,2.2
2015-11-19T00:42:43.429Z,2.18
2015-11-19T00:42:55.804Z,2.15
2015-11-19T00:43:08.211Z,2.23
2015-11-19T00:43:20.617Z,2.23
2015-11-19T00:43:32.979Z,2.2
2015-11-19T00:43:45.386Z,2.23
2015-11-19T00:43:57.823Z,2.22
2015-11-19T00:44:10.198Z,2.16
2015-11-19T00:44:21.870Z,2.16
2015-11-19T00:44:34.247Z,2.2
2015-11-19T00:44:46.622Z,2.2
2015-11-19T00:44:59.044Z,2.12
2015-11-19T00:45:10.809Z,2.16
2015-11-19T00:45:23.153Z,2.18
2015-11-19T00:45:35.500Z,2.16
2015-11-19T00:45:47.859Z,2.18
2015-11-19T00:46:00.203Z,2.16
2015-11-19T00:46:12.547Z,2.16
2015-11-19T00:46:24.891Z,2.16
2015-11-19T00:46:37.237Z,2.15
2015-11-19T00:46:49.628Z,2.15
2015-11-19T00:47:01.972Z,2.11
2015-11-19T00:47:13.597Z,2.16
2015-11-19T00:47:25.784Z,2.23
2015-11-19T00:47:38.130Z,2.18
2015-11-19T00:47:50.505Z,2.15
2015-11-19T00:48:02.864Z,2.22
2015-11-19T00:48:15.255Z,2.09
2015-11-19T00:48:27.599Z,2.2
2015-11-19T00:48:39.962Z,2.15
2015-11-19T00:48:52.337Z,2.15
2015-11-19T00:49:04.712Z,2.16
2015-11-19T00:49:17.103Z,2.18
2015-11-19T00:49:29.321Z,2.18
2015-11-19T00:49:41.715Z,2.16
2015-11-19T00:49:54.090Z,2.15
2015-11-19T00:50:06.465Z,2.08
2015-11-19T00:50:18.809Z,2.18
2015-11-19T00:50:31.153Z,2.18
2015-11-19T00:50:43.498Z,2.08
2015-11-19T00:50:55.842Z,2.11
2015-11-19T00:51:08.201Z,2.12
2015-11-19T00:51:20.530Z,2.18
2015-11-19T00:51:32.873Z,2.13
2015-11-19T00:51:45.236Z,2.15
2015-11-19T00:51:57.579Z,2.12
2015-11-19T00:52:09.923Z,2.16
2015-11-19T00:52:22.267Z,2.13
2015-11-19T00:52:34.611Z,2.05
2015-11-19T00:52:46.973Z,2.05
2015-11-19T00:52:59.332Z,2.16
2015-11-19T00:53:11.692Z,2.15
2015-11-19T00:53:24.051Z,2.08
2015-11-19T00:53:36.411Z,2.11
2015-11-19T00:53:48.788Z,2.06
2015-11-19T00:54:01.178Z,2.11
2015-11-19T00:54:13.553Z,2.13
2015-11-19T00:54:25.928Z,2.09
2015-11-19T00:54:38.303Z,2.08
2015-11-19T00:54:50.680Z,2.05
2015-11-19T00:55:03.055Z,2.09
2015-11-19T00:55:15.508Z,2.06
2015-11-19T00:55:27.930Z,2.04
2015-11-19T00:55:40.321Z,2.08
2015-11-19T00:55:52.668Z,2.02
2015-11-19T00:56:05.011Z,2.12
2015-11-19T00:56:17.371Z,2.09
2015-11-19T00:56:29.730Z,2.08
2015-11-19T00:56:42.074Z,2.04
2015-11-19T00:56:54.421Z,2.04
2015-11-19T00:57:06.764Z,2.04
2015-11-19T00:57:19.124Z,2.11
2015-11-19T00:57:31.467Z,2.02
2015-11-19T00:57:43.827Z,2.01
2015-11-19T00:57:56.174Z,2.04
2015-11-19T00:58:08.517Z,2.01
2015-11-19T00:58:20.174Z,2.02
2015-11-19T00:58:32.377Z,1.97
2015-11-19T00:58:44.595Z,1.98
2015-11-19T00:58:57.005Z,2.04
2015-11-19T00:59:09.411Z,2.05
2015-11-19T00:59:21.786Z,1.98
2015-11-19T00:59:34.161Z,1.98
2015-11-19T00:59:46.598Z,2.04
2015-11-19T00:59:59.008Z,1.94
2015-11-19T01:00:11.383Z,1.94
2015-11-19T01:00:23.789Z,2.05
2015-11-19T01:00:36.117Z,1.94
2015-11-19T01:00:48.461Z,2.04
2015-11-19T01:01:00.807Z,2.04
2015-11-19T01:01:13.150Z,2.01
2015-11-19T01:01:25.525Z,1.98
2015-11-19T01:01:37.853Z,2.02
2015-11-19T01:01:50.197Z,2.04
2015-11-19T01:02:02.560Z,2.11
2015-11-19T01:02:14.935Z,2.01
2015-11-19T01:02:27.325Z,2.05
2015-11-19T01:02:39.669Z,2.12
2015-11-19T01:02:52.013Z,2.12
2015-11-19T01:03:04.375Z,2.01
2015-11-19T01:03:16.734Z,2.11
2015-11-19T01:03:29.125Z,2.08
2015-11-19T01:03:41.500Z,2.04
2015-11-19T01:03:53.859Z,2.06
2015-11-19T01:04:06.222Z,2.05
2015-11-19T01:04:18.597Z,2.06
2015-11-19T01:04:30.956Z,2.09
2015-11-19T01:04:43.331Z,2.05
2015-11-19T01:04:55.706Z,2.11
2015-11-19T01:05:08.100Z,2.05
2015-11-19T01:05:20.475Z,2.09
2015-11-19T01:05:32.834Z,2.08
2015-11-19T01:05:45.209Z,2.05
2015-11-19T01:05:57.569Z,2.06
2015-11-19T01:06:09.914Z,2.11
2015-11-19T01:06:22.258Z,2.11
2015-11-19T01:06:34.430Z,2.08
2015-11-19T01:06:46.805Z,2.04
2015-11-19T01:06:59.180Z,2.08
2015-11-19T01:07:11.542Z,2.09
2015-11-19T01:07:23.886Z,2.06
2015-11-19T01:07:36.495Z,2.08
2015-11-19T01:07:48.839Z,2.05
2015-11-19T01:08:00.464Z,2.15
2015-11-19T01:08:12.811Z,2.06
2015-11-19T01:08:25.233Z,2.02
2015-11-19T01:08:37.655Z,2.05
2015-11-19T01:08:50.014Z,2.02
2015-11-19T01:09:02.373Z,2.08
2015-11-19T01:09:14.720Z,2.08
2015-11-19T01:09:27.095Z,2.15
2015-11-19T01:09:39.501Z,2.05
2015-11-19T01:09:51.970Z,2.08
2015-11-19T01:10:04.345Z,2.06
2015-11-19T01:10:16.723Z,2.06
2015-11-19T01:10:29.114Z,2.06
2015-11-19T01:10:41.551Z,2.06
2015-11-19T01:10:53.973Z,2.12
2015-11-19T01:11:06.317Z,2.06
2015-11-19T01:11:18.647Z,2.11
2015-11-19T01:11:30.991Z,2.06
2015-11-19T01:11:43.350Z,2.12
2015-11-19T01:11:55.694Z,2.09
2015-11-19T01:12:08.038Z,2.11
2015-11-19T01:12:20.384Z,2.02
2015-11-19T01:12:32.728Z,2.09
2015-11-19T01:12:45.072Z,2.05
2015-11-19T01:12:57.416Z,2.09
2015-11-19T01:13:09.759Z,2.11
2015-11-19T01:13:22.090Z,2.12
2015-11-19T01:13:34.449Z,2.04
2015-11-19T01:13:46.824Z,2.08
2015-11-19T01:13:59.199Z,2.12
2015-11-19T01:14:11.558Z,2.13
2015-11-19T01:14:23.952Z,2.11
2015-11-19T01:14:36.327Z,2.06
2015-11-19T01:14:48.733Z,2.12
2015-11-19T01:15:01.108Z,2.12
2015-11-19T01:15:13.499Z,2.09
2015-11-19T01:15:25.861Z,2.06
2015-11-19T01:15:38.267Z,2.11
2015-11-19T01:15:49.986Z,2.15
2015-11-19T01:16:02.346Z,2.08
2015-11-19T01:16:14.689Z,2.08
2015-11-19T01:16:27.020Z,2.06
2015-11-19T01:16:39.364Z,2.06
2015-11-19T01:16:50.989Z,2.15
2015-11-19T01:17:03.364Z,2.02
2015-11-19T01:17:15.708Z,2.09
2015-11-19T01:17:28.039Z,2.05
2015-11-19T01:17:40.367Z,2.05
2015-11-19T01:17:52.773Z,2.09
2015-11-19T01:18:05.148Z,2.11
2015-11-19T01:18:17.492Z,2.06
2015-11-19T01:18:29.839Z,2.11
2015-11-19T01:18:42.198Z,2.13
2015-11-19T01:18:54.573Z,2.04
2015-11-19T01:19:06.917Z,2.04
2015-11-19T01:19:19.339Z,2.13
2015-11-19T01:19:31.764Z,2.01
2015-11-19T01:19:44.139Z,2.06
2015-11-19T01:19:56.514Z,2.11
2015-11-19T01:20:08.889Z,2.12
2015-11-19T01:20:21.248Z,2.04
2015-11-19T01:20:33.485Z,2.06
2015-11-19T01:20:45.860Z,2.06
2015-11-19T01:20:58.281Z,2.09
2015-11-19T01:21:10.625Z,2.09
2015-11-19T01:21:22.985Z,2.15
2015-11-19T01:21:35.331Z,2.05
2015-11-19T01:21:47.659Z,2.13
2015-11-19T01:22:00.003Z,2.12
2015-11-19T01:22:12.347Z,2.13
2015-11-19T01:22:24.691Z,2.05
2015-11-19T01:23:02.755Z,2.09
2015-11-19T01:23:15.146Z,2.06
2015-11-19T01:23:27.490Z,2.05
2015-11-19T01:23:39.836Z,1.93
2015-11-19T01:23:52.196Z,2.04
2015-11-19T01:24:03.852Z,2.04
2015-11-19T01:24:16.196Z,1.98
2015-11-19T01:24:28.555Z,1.98
2015-11-19T01:24:40.917Z,2.02
2015-11-19T01:24:53.339Z,2.01
2015-11-19T01:25:05.714Z,2.01
2015-11-19T01:25:18.089Z,2.01
2015-11-19T01:25:30.480Z,2.02
2015-11-19T01:25:42.842Z,1.98
2015-11-19T01:25:55.185Z,1.94
2015-11-19T01:26:07.623Z,2.04
2015-11-19T01:26:19.967Z,2.06
2015-11-19T01:26:32.296Z,2.02
2015-11-19T01:26:44.640Z,2.01
2015-11-19T01:26:56.984Z,1.97
2015-11-19T01:27:09.328Z,2.02
2015-11-19T01:27:21.687Z,1.97
2015-11-19T01:27:34.018Z,1.98
2015-11-19T01:27:46.361Z,2.02
2015-11-19T01:27:58.736Z,1.98
2015-11-19T01:28:11.111Z,2.09
2015-11-19T01:28:23.455Z,2.11
2015-11-19T01:28:35.816Z,2.02
2015-11-19T01:28:48.160Z,2.02
2015-11-19T01:29:00.566Z,2.08
2015-11-19T01:29:12.941Z,2.06
2015-11-19T01:29:25.301Z,2.05
2015-11-19T01:29:37.673Z,2.12
2015-11-19T01:29:50.063Z,2.02
2015-11-19T01:30:02.438Z,2.05
2015-11-19T01:30:14.813Z,2.09
2015-11-19T01:30:27.204Z,2.06
2015-11-19T01:30:39.575Z,2.12
2015-11-19T01:30:51.950Z,2.12
2015-11-19T01:31:04.340Z,2.06
2015-11-19T01:31:16.684Z,2.02
2015-11-19T01:31:29.028Z,2.06
2015-11-19T01:31:41.368Z,2.06
2015-11-19T01:31:53.758Z,2.09
2015-11-19T01:32:06.180Z,2.11
2015-11-19T01:32:18.524Z,2.12
2015-11-19T01:32:30.852Z,2.15
2015-11-19T01:32:43.194Z,2.06
2015-11-19T01:32:55.553Z,2.06
2015-11-19T01:33:07.897Z,2.09
2015-11-19T01:33:20.256Z,2.05
2015-11-19T01:33:32.600Z,2.06
2015-11-19T01:33:44.924Z,2.11
2015-11-19T01:33:57.299Z,2.15
2015-11-19T01:34:09.674Z,2.06
2015-11-19T01:34:22.096Z,2.09
2015-11-19T01:34:34.440Z,2.08
2015-11-19T01:34:46.815Z,2.16
2015-11-19T01:34:59.190Z,2.15
2015-11-19T01:35:11.565Z,2.16
2015-11-19T01:35:23.940Z,2.04
2015-11-19T01:35:36.331Z,2.09
2015-11-19T01:35:47.988Z,2.09
2015-11-19T01:36:00.378Z,2.02
2015-11-19T01:36:12.753Z,2.09
2015-11-19T01:36:25.128Z,2.06
2015-11-19T01:36:37.473Z,2.05
2015-11-19T01:36:49.817Z,1.97
2015-11-19T01:37:02.161Z,1.98
2015-11-19T01:37:14.504Z,2.01
2015-11-19T01:37:26.848Z,1.97
2015-11-19T01:37:38.552Z,1.94
2015-11-19T01:37:50.880Z,1.92
2015-11-19T01:38:03.224Z,2.06
2015-11-19T01:38:15.583Z,1.97
2015-11-19T01:38:27.927Z,1.89
2015-11-19T01:38:40.272Z,1.93
2015-11-19T01:38:52.663Z,1.97
2015-11-19T01:39:05.038Z,2.02
2015-11-19T01:39:17.397Z,1.98
2015-11-19T01:39:29.772Z,2.04
2015-11-19T01:39:42.133Z,1.9
2015-11-19T01:39:54.508Z,1.98
2015-11-19T01:40:06.727Z,1.98
2015-11-19T01:40:19.086Z,1.98
2015-11-19T01:40:31.540Z,1.98
2015-11-19T01:40:43.917Z,2.02
2015-11-19T01:40:56.307Z,2.09
2015-11-19T01:41:08.682Z,2.04
2015-11-19T01:41:21.026Z,2.04
2015-11-19T01:41:33.354Z,2.11
2015-11-19T01:41:45.731Z,2.06
2015-11-19T01:41:58.090Z,2.13
2015-11-19T01:42:10.450Z,1.98
2015-11-19T01:42:22.794Z,2.06
2015-11-19T01:42:35.137Z,2.01
2015-11-19T01:42:47.483Z,2.11
2015-11-19T01:42:59.842Z,2.08
2015-11-19T01:43:12.186Z,2.16
2015-11-19T01:43:24.546Z,2.08
2015-11-19T01:43:36.999Z,2.13
2015-11-19T01:43:49.360Z,2.09
2015-11-19T01:44:01.719Z,2.16
2015-11-19T01:44:14.063Z,2.12
2015-11-19T01:44:25.704Z,2.06
2015-11-19T01:44:38.063Z,2.05
2015-11-19T01:44:50.440Z,2.04
2015-11-19T01:45:02.831Z,2.11
2015-11-19T01:45:15.206Z,2.12
2015-11-19T01:45:27.581Z,2.11
2015-11-19T01:45:39.253Z,2.09
2015-11-19T01:45:51.630Z,2.05
2015-11-19T01:46:04.036Z,2.12
2015-11-19T01:46:16.395Z,2.09
2015-11-19T01:46:28.817Z,2.08
2015-11-19T01:46:41.161Z,2.12
2015-11-19T01:46:53.351Z,2.13
2015-11-19T01:47:05.711Z,2.11
2015-11-19T01:47:18.055Z,2.06
2015-11-19T01:47:30.398Z,2.05
2015-11-19T01:47:42.586Z,2.05
2015-11-19T01:47:54.947Z,2.11
2015-11-19T01:48:07.291Z,2.01
2015-11-19T01:48:19.666Z,2.01
2015-11-19T01:48:32.010Z,2.01
2015-11-19T01:48:44.369Z,2.01
2015-11-19T01:48:56.731Z,2.11
2015-11-19T01:49:09.091Z,2.01
2015-11-19T01:49:21.450Z,2.05
2015-11-19T01:49:33.153Z,2.01
2015-11-19T01:49:45.560Z,2.06
2015-11-19T01:49:57.952Z,2.05
2015-11-19T01:50:10.327Z,2.02
2015-11-19T01:50:22.702Z,2.02
2015-11-19T01:50:35.140Z,1.93
2015-11-19T01:50:47.530Z,1.94
2015-11-19T01:50:59.955Z,1.98
2015-11-19T01:51:12.361Z,2.04
2015-11-19T01:51:24.705Z,1.98
2015-11-19T01:51:37.049Z,1.94
2015-11-19T01:51:49.393Z,1.92
2015-11-19T01:52:01.755Z,1.97
2015-11-19T01:52:14.130Z,1.97
2015-11-19T01:52:26.458Z,1.93
2015-11-19T01:52:38.786Z,2.01
2015-11-19T01:52:50.411Z,1.98
2015-11-19T01:53:02.742Z,1.97
2015-11-19T01:53:15.086Z,1.92
2015-11-19T01:53:27.430Z,1.86
2015-11-19T01:53:39.805Z,1.86
2015-11-19T01:53:52.180Z,1.93
2015-11-19T01:54:04.574Z,1.89
2015-11-19T01:54:16.917Z,1.9
2015-11-19T01:54:29.277Z,1.87
2015-11-19T01:54:41.636Z,1.94
2015-11-19T01:54:54.027Z,1.9
2015-11-19T01:55:06.452Z,1.84
2015-11-19T01:55:18.842Z,1.89
2015-11-19T01:55:31.217Z,1.84
2015-11-19T01:55:43.592Z,1.92
2015-11-19T01:55:56.014Z,1.89
2015-11-19T01:56:08.438Z,1.83
2015-11-19T01:56:20.813Z,1.89
2015-11-19T01:56:33.157Z,1.86
2015-11-19T01:56:45.500Z,1.92
2015-11-19T01:56:57.844Z,1.93
2015-11-19T01:57:10.222Z,1.93
2015-11-19T01:57:22.566Z,1.97
2015-11-19T01:57:34.925Z,1.94
2015-11-19T01:57:47.269Z,1.92
2015-11-19T01:57:58.910Z,1.9
2015-11-19T01:58:11.255Z,1.87
2015-11-19T01:58:23.599Z,1.9
2015-11-19T01:58:35.943Z,1.86
2015-11-19T01:58:48.287Z,1.98
2015-11-19T01:59:00.646Z,1.89
2015-11-19T01:59:13.008Z,1.92
2015-11-19T01:59:25.368Z,1.92
2015-11-19T01:59:37.712Z,1.97
2015-11-19T01:59:50.071Z,2.04
2015-11-19T02:00:02.430Z,1.86
2015-11-19T02:00:14.824Z,1.9
2015-11-19T02:00:27.183Z,1.94
2015-11-19T02:00:39.558Z,1.93
2015-11-19T02:00:51.933Z,1.98
2015-11-19T02:01:04.277Z,1.98
2015-11-19T02:01:16.624Z,1.98
2015-11-19T02:01:28.968Z,1.9
2015-11-19T02:01:41.296Z,1.9
2015-11-19T02:01:53.655Z,2.01
2015-11-19T02:02:05.983Z,1.94
2015-11-19T02:02:18.438Z,1.98
2015-11-19T02:02:30.782Z,1.93
2015-11-19T02:02:43.141Z,1.92
2015-11-19T02:02:55.470Z,2.02
2015-11-19T02:03:07.813Z,2.04
2015-11-19T02:03:20.160Z,1.9
2015-11-19T02:03:32.504Z,1.97
2015-11-19T02:03:44.863Z,1.94
2015-11-19T02:03:57.223Z,1.93
2015-11-19T02:04:09.582Z,1.98
2015-11-19T02:04:21.929Z,1.97
2015-11-19T02:04:34.304Z,1.9
2015-11-19T02:04:46.663Z,1.97
2015-11-19T02:04:59.038Z,1.98
2015-11-19T02:05:11.413Z,1.94
2015-11-19T02:05:23.807Z,2.02
2015-11-19T02:05:36.182Z,2.01
2015-11-19T02:05:48.557Z,1.94
2015-11-19T02:06:00.947Z,1.97
2015-11-19T02:06:13.291Z,1.94
2015-11-19T02:06:25.638Z,1.92
2015-11-19T02:06:37.982Z,1.97
2015-11-19T02:06:50.325Z,1.98
2015-11-19T02:07:02.700Z,1.93
2015-11-19T02:07:15.044Z,2.01
2015-11-19T02:07:27.390Z,1.92
2015-11-19T02:07:39.734Z,1.87
2015-11-19T02:07:52.093Z,1.93
2015-11-19T02:08:04.452Z,2.04
2015-11-19T02:08:16.796Z,1.87
2015-11-19T02:08:29.143Z,1.97
2015-11-19T02:08:41.518Z,1.9
2015-11-19T02:08:53.893Z,1.93
2015-11-19T02:09:06.252Z,1.93
2015-11-19T02:09:18.612Z,1.92
2015-11-19T02:09:30.958Z,2.01
2015-11-19T02:09:43.333Z,1.93
2015-11-19T02:09:55.693Z,1.87
2015-11-19T02:10:08.115Z,1.98
2015-11-19T02:10:20.505Z,1.89
2015-11-19T02:10:32.835Z,2.02
2015-11-19T02:10:45.179Z,2.01
2015-11-19T02:10:57.523Z,1.93
2015-11-19T02:11:09.929Z,1.97
2015-11-19T02:11:22.288Z,2.04
2015-11-19T02:11:34.620Z,2.01
2015-11-19T02:11:46.963Z,1.92
2015-11-19T02:11:59.307Z,1.93
2015-11-19T02:12:11.666Z,1.97
2015-11-19T02:12:24.073Z,2.02
2015-11-19T02:12:36.451Z,1.97
2015-11-19T02:12:48.794Z,2.05
2015-11-19T02:13:01.138Z,1.98
2015-11-19T02:13:13.498Z,1.94
2015-11-19T02:13:25.857Z,2.01
2015-11-19T02:13:38.203Z,1.97
2015-11-19T02:13:49.843Z,2.01
2015-11-19T02:14:02.265Z,1.98
2015-11-19T02:14:14.703Z,2.02
2015-11-19T02:14:27.081Z,2.04
2015-11-19T02:14:39.456Z,2.01
2015-11-19T02:14:51.846Z,2.12
2015-11-19T02:15:04.206Z,2.08
2015-11-19T02:15:16.424Z,2.02
2015-11-19T02:15:28.912Z,2.08
2015-11-19T02:15:41.256Z,2.12
2015-11-19T02:15:53.599Z,2.04
2015-11-19T02:16:05.943Z,2.06
2015-11-19T02:16:18.302Z,2.04
2015-11-19T02:16:30.696Z,2.06
2015-11-19T02:16:43.040Z,2.01
2015-11-19T02:16:55.384Z,2.01
2015-11-19T02:17:07.727Z,2.01
2015-11-19T02:17:20.071Z,2.02
2015-11-19T02:17:32.418Z,2.01
2015-11-19T02:17:44.777Z,1.97
2015-11-19T02:17:57.137Z,2.04
2015-11-19T02:18:09.480Z,2.04
2015-11-19T02:18:21.840Z,2.01
2015-11-19T02:18:34.202Z,2.02
2015-11-19T02:18:46.546Z,2.01
2015-11-19T02:18:58.905Z,1.97
2015-11-19T02:19:11.265Z,1.97
2015-11-19T02:19:23.655Z,1.93
2015-11-19T02:19:36.032Z,1.94
2015-11-19T02:19:48.423Z,2.05
2015-11-19T02:20:00.798Z,2.01
2015-11-19T02:20:13.188Z,2.09
2015-11-19T02:20:25.563Z,2.01
2015-11-19T02:20:37.940Z,2.05
2015-11-19T02:20:50.331Z,1.94
2015-11-19T02:21:02.722Z,2.02
2015-11-19T02:21:15.065Z,2.01
2015-11-19T02:21:27.394Z,1.98
2015-11-19T02:21:39.741Z,1.97
2015-11-19T02:21:52.085Z,1.94
2015-11-19T02:22:04.429Z,1.98
2015-11-19T02:22:16.773Z,2.02
2015-11-19T02:22:28.413Z,2.04
2015-11-19T02:22:40.760Z,2.02
2015-11-19T02:22:53.104Z,2.06
2015-11-19T02:23:05.291Z,1.94
2015-11-19T02:23:17.635Z,2.05
2015-11-19T02:23:30.010Z,2.05
2015-11-19T02:23:42.356Z,2.01
2015-11-19T02:23:54.778Z,1.9
2015-11-19T02:24:07.215Z,1.98
2015-11-19T02:24:19.606Z,1.93
2015-11-19T02:24:31.981Z,2.02
2015-11-19T02:24:44.343Z,2.02
2015-11-19T02:24:56.718Z,2.02
2015-11-19T02:25:09.109Z,1.98
2015-11-19T02:25:21.468Z,1.98
2015-11-19T02:25:33.843Z,2.04
2015-11-19T02:25:46.252Z,1.94
2015-11-19T02:25:58.580Z,1.92
2015-11-19T02:26:10.924Z,1.94
2015-11-19T02:26:23.268Z,1.98
2015-11-19T02:26:35.627Z,1.98
2015-11-19T02:26:47.974Z,1.98
2015-11-19T02:27:00.318Z,2.05
2015-11-19T02:27:12.708Z,2.04
2015-11-19T02:27:25.068Z,2.09
2015-11-19T02:27:37.412Z,2.04
2015-11-19T02:27:49.757Z,2.09
2015-11-19T02:28:02.101Z,2.13
2015-11-19T02:28:14.445Z,2.12
2015-11-19T02:28:26.789Z,2.08
2015-11-19T02:28:39.148Z,2.12
2015-11-19T02:28:51.510Z,2.04
2015-11-19T02:29:03.870Z,2.06
2015-11-19T02:29:16.198Z,2.08
2015-11-19T02:29:27.838Z,2.09
2015-11-19T02:29:40.198Z,2.06
2015-11-19T02:29:52.559Z,2.08
2015-11-19T02:30:04.934Z,2.05
2015-11-19T02:30:17.309Z,2.09
2015-11-19T02:30:29.700Z,2.06
2015-11-19T02:30:42.106Z,2.06
2015-11-19T02:30:54.454Z,2.09
2015-11-19T02:31:06.798Z,2.04
2015-11-19T02:31:19.141Z,2.11
2015-11-19T02:31:31.485Z,2.16
2015-11-19T02:31:43.829Z,2.11
2015-11-19T02:31:56.206Z,2.13
2015-11-19T02:32:08.550Z,2.02
2015-11-19T02:32:20.893Z,2.15
2015-11-19T02:32:33.253Z,2.13
2015-11-19T02:32:45.596Z,2.02
2015-11-19T02:32:57.959Z,2.05
2015-11-19T02:33:10.303Z,2.12
2015-11-19T02:33:22.646Z,2.09
2015-11-19T02:33:35.021Z,2.12
2015-11-19T02:33:47.381Z,2.12
2015-11-19T02:33:59.056Z,2.09
2015-11-19T02:34:11.477Z,2.09
2015-11-19T02:34:23.837Z,2.13
2015-11-19T02:34:36.212Z,2.06
2015-11-19T02:34:48.587Z,2.11
2015-11-19T02:35:00.965Z,2.12
2015-11-19T02:35:13.199Z,2.11
2015-11-19T02:35:25.559Z,2.11
2015-11-19T02:35:37.277Z,2.04
2015-11-19T02:35:49.684Z,2.04
2015-11-19T02:36:02.030Z,2.15
2015-11-19T02:36:14.374Z,2.08
2015-11-19T02:36:26.718Z,2.08
2015-11-19T02:36:39.062Z,2.09
2015-11-19T02:36:51.405Z,2.11
2015-11-19T02:37:03.860Z,2.05
2015-11-19T02:37:16.251Z,2.12
2015-11-19T02:37:28.689Z,2.05
2015-11-19T02:37:40.892Z,2.15
2015-11-19T02:37:53.251Z,2.08
2015-11-19T02:38:05.675Z,2.05
2015-11-19T02:38:18.112Z,2.05
2015-11-19T02:38:30.456Z,2.12
2015-11-19T02:38:42.831Z,2.05
2015-11-19T02:38:55.159Z,2.04
2015-11-19T02:39:07.507Z,2.11
2015-11-19T02:39:19.929Z,2.01
2015-11-19T02:39:32.413Z,2.05
2015-11-19T02:39:44.757Z,2.01
2015-11-19T02:39:57.273Z,2.02
2015-11-19T02:40:09.775Z,2.01
2015-11-19T02:40:22.181Z,2.12
2015-11-19T02:40:34.572Z,2.04
2015-11-19T02:40:46.962Z,2.11
2015-11-19T02:40:59.337Z,2.02
2015-11-19T02:41:11.715Z,2.05
2015-11-19T02:41:24.153Z,2.09
2015-11-19T02:41:36.590Z,2.05
2015-11-19T02:41:48.934Z,2.05
2015-11-19T02:42:01.293Z,2.08
2015-11-19T02:42:13.468Z,2.09
2015-11-19T02:42:25.812Z,2.02
2015-11-19T02:42:38.171Z,2.09
2015-11-19T02:42:50.546Z,2.09
2015-11-19T02:43:03.015Z,2.09
2015-11-19T02:43:15.361Z,2.08
2015-11-19T02:43:27.720Z,2.09
2015-11-19T02:43:40.048Z,2.05
2015-11-19T02:43:52.392Z,2.08
2015-11-19T02:44:04.736Z,2.11
2015-11-19T02:44:17.129Z,2.05
2015-11-19T02:44:29.567Z,2.09
2015-11-19T02:44:41.926Z,2.13
2015-11-19T02:44:53.567Z,2.06
2015-11-19T02:45:05.926Z,2.09